Time;durP1;ratioP1;P1;durP2;ratioP2;P2;SDS_P1;SDS_P2;PMS_P1;PMS_P2;Temp;Humidity;BMP_temperature;BMP_pressure;BME280_temperature;BME280_humidity;BME280_pressure;Samples;Min_cycle;Max_cycle;Signal;HPM_P1;HPM_P2
2023/09/11 00:00:28;;;;;;;21.80;13.70;;;21.20;99.90;;;;;;4993402;28;20035;-80
2023/09/11 00:02:53;;;;;;;19.85;14.00;;;21.10;99.90;;;;;;4992534;28;20178;-80
2023/09/11 00:05:19;;;;;;;17.30;13.40;;;21.10;99.90;;;;;;4993699;28;20091;-79
2023/09/11 00:07:44;;;;;;;18.85;12.85;;;21.10;99.90;;;;;;4992627;28;20102;-80
2023/09/11 00:10:10;;;;;;;20.15;13.93;;;21.10;99.90;;;;;;4991610;28;20125;-80
2023/09/11 00:12:35;;;;;;;18.85;13.43;;;21.10;99.90;;;;;;4994138;28;20497;-82
2023/09/11 00:15:01;;;;;;;22.48;14.32;;;21.10;99.90;;;;;;4993359;28;20085;-80
2023/09/11 00:17:27;;;;;;;21.70;13.23;;;21.10;99.90;;;;;;4977194;28;20048;-80
2023/09/11 00:19:53;;;;;;;18.83;14.00;;;21.00;99.90;;;;;;4994744;28;20046;-80
2023/09/11 00:22:19;;;;;;;24.77;13.07;;;21.00;99.90;;;;;;4988079;28;20050;-80
2023/09/11 00:24:44;;;;;;;20.75;13.07;;;21.00;99.90;;;;;;4991112;28;20513;-80
2023/09/11 00:27:10;;;;;;;18.15;13.43;;;21.00;99.90;;;;;;4991934;28;20129;-80
2023/09/11 00:29:36;;;;;;;20.75;14.07;;;21.00;99.90;;;;;;4975972;28;20030;-80
2023/09/11 00:32:02;;;;;;;20.40;13.07;;;21.00;99.90;;;;;;4993007;28;20050;-80
2023/09/11 00:34:29;;;;;;;27.90;13.93;;;20.90;99.90;;;;;;4981677;28;20501;-80
2023/09/11 00:36:56;;;;;;;17.33;12.52;;;21.00;99.90;;;;;;4992701;28;20053;-80
2023/09/11 00:39:21;;;;;;;21.15;13.95;;;20.90;99.90;;;;;;4993278;28;20054;-80
2023/09/11 00:41:47;;;;;;;17.83;12.98;;;20.90;99.90;;;;;;4993253;28;20042;-80
2023/09/11 00:44:12;;;;;;;20.17;13.75;;;20.90;99.90;;;;;;4992538;28;20050;-80
2023/09/11 00:46:39;;;;;;;17.58;12.85;;;20.90;99.90;;;;;;4992273;28;20044;-80
2023/09/11 00:49:06;;;;;;;19.17;13.35;;;20.90;99.90;;;;;;4990708;28;20486;-80
2023/09/11 00:51:32;;;;;;;19.30;13.65;;;20.80;99.90;;;;;;4990062;28;20126;-80
2023/09/11 00:53:58;;;;;;;22.55;13.77;;;20.80;99.90;;;;;;4991888;28;20038;-80
2023/09/11 00:56:24;;;;;;;20.02;13.52;;;20.80;99.90;;;;;;4992122;28;20046;-80
2023/09/11 00:58:50;;;;;;;19.75;13.68;;;20.80;99.90;;;;;;4991993;28;20157;-80
2023/09/11 01:01:17;;;;;;;20.65;12.45;;;20.70;99.90;;;;;;4992170;28;20501;-81
2023/09/11 01:03:44;;;;;;;20.80;13.80;;;20.70;99.90;;;;;;4991464;28;20485;-80
2023/09/11 01:06:10;;;;;;;21.98;12.93;;;20.70;99.90;;;;;;4992127;28;20038;-81
2023/09/11 01:08:36;;;;;;;21.08;13.38;;;20.70;99.90;;;;;;4992357;28;20084;-80
2023/09/11 01:11:01;;;;;;;22.58;13.52;;;20.70;99.90;;;;;;4991115;28;20110;-82
2023/09/11 01:13:27;;;;;;;21.50;12.60;;;20.70;99.90;;;;;;5002637;28;20121;-80
2023/09/11 01:16:32;;;;;;;19.42;12.73;;;20.70;99.90;;;;;;4990970;28;20042;-80
2023/09/11 01:19:35;;;;;;;18.52;13.00;;;20.60;99.90;;;;;;4989977;28;20038;-79
2023/09/11 01:22:44;;;;;;;21.35;12.73;;;20.60;99.90;;;;;;5006022;28;20057;-80
2023/09/11 01:25:32;;;;;;;22.08;14.27;;;20.50;99.90;;;;;;4984412;28;20037;-79
2023/09/11 01:28:22;;;;;;;18.23;12.75;;;20.50;99.90;;;;;;4992023;28;20121;-80
2023/09/11 01:30:49;;;;;;;20.88;12.85;;;20.50;99.90;;;;;;4987440;28;20085;-82
2023/09/11 01:33:15;;;;;;;19.48;13.25;;;20.50;99.90;;;;;;4992741;28;20053;-80
2023/09/11 01:35:40;;;;;;;19.80;13.30;;;20.50;99.90;;;;;;4991991;28;20042;-80
2023/09/11 01:38:07;;;;;;;21.50;13.48;;;20.50;99.90;;;;;;4976498;28;20034;-80
2023/09/11 01:40:34;;;;;;;20.77;12.98;;;20.40;99.90;;;;;;4999628;28;20042;-80
2023/09/11 01:43:04;;;;;;;19.25;13.63;;;20.40;99.90;;;;;;4992054;28;20065;-80
2023/09/11 01:45:31;;;;;;;18.50;12.55;;;20.40;99.90;;;;;;4990131;28;20031;-80
2023/09/11 01:47:59;;;;;;;25.55;13.77;;;20.40;99.90;;;;;;4991831;28;20038;-80
2023/09/11 01:50:25;;;;;;;25.83;13.00;;;20.30;99.90;;;;;;4989916;28;20394;-81
2023/09/11 01:52:52;;;;;;;22.75;13.80;;;20.30;99.90;;;;;;4990887;28;20060;-81
2023/09/11 01:55:18;;;;;;;22.50;13.90;;;20.30;99.90;;;;;;4991648;28;20046;-80
2023/09/11 01:57:43;;;;;;;24.33;13.80;;;20.30;99.90;;;;;;4974329;28;20038;-81
2023/09/11 02:00:09;;;;;;;22.25;13.68;;;20.30;99.90;;;;;;4988309;28;20042;-80
2023/09/11 02:02:35;;;;;;;23.63;14.18;;;20.30;99.90;;;;;;4992344;28;20213;-82
2023/09/11 02:05:01;;;;;;;20.77;13.30;;;20.30;99.90;;;;;;4990375;28;20133;-80
2023/09/11 02:07:27;;;;;;;20.05;13.23;;;20.20;99.90;;;;;;4991220;28;20042;-80
2023/09/11 02:09:52;;;;;;;22.83;13.07;;;20.20;99.90;;;;;;4990640;28;20049;-80
2023/09/11 02:12:18;;;;;;;20.73;13.55;;;20.20;99.90;;;;;;4991651;28;20046;-80
2023/09/11 02:14:43;;;;;;;23.45;13.77;;;20.10;99.90;;;;;;4992300;28;20371;-81
2023/09/11 02:17:09;;;;;;;20.15;13.40;;;20.10;99.90;;;;;;4990305;28;20049;-80
2023/09/11 02:19:34;;;;;;;23.85;14.63;;;20.20;99.90;;;;;;4992597;28;20049;-80
2023/09/11 02:22:00;;;;;;;20.70;13.05;;;20.10;99.90;;;;;;4998290;28;20045;-80
2023/09/11 02:24:26;;;;;;;30.83;12.68;;;20.20;99.90;;;;;;4991587;28;20034;-80
2023/09/11 02:26:52;;;;;;;19.40;14.23;;;20.10;99.90;;;;;;4991444;28;20042;-80
2023/09/11 02:29:18;;;;;;;23.75;13.57;;;20.10;99.90;;;;;;4988625;28;20308;-80
2023/09/11 02:31:43;;;;;;;21.67;14.32;;;20.10;99.90;;;;;;4990184;28;20038;-80
2023/09/11 02:34:09;;;;;;;22.40;13.88;;;20.10;99.90;;;;;;4991029;28;20073;-80
2023/09/11 02:36:34;;;;;;;21.40;13.68;;;20.10;99.90;;;;;;4990161;28;20042;-80
2023/09/11 02:39:00;;;;;;;24.95;14.70;;;20.10;99.90;;;;;;4990909;28;20172;-80
2023/09/11 02:41:25;;;;;;;27.25;13.63;;;20.10;99.90;;;;;;4989879;28;20034;-80
2023/09/11 02:43:51;;;;;;;25.85;14.43;;;20.00;99.90;;;;;;4996256;28;20069;-80
2023/09/11 02:46:16;;;;;;;21.40;14.15;;;20.00;99.90;;;;;;4989661;28;20035;-80
2023/09/11 02:48:47;;;;;;;23.20;13.95;;;20.00;99.90;;;;;;4972425;28;20065;-80
2023/09/11 02:51:13;;;;;;;18.75;12.88;;;20.00;99.90;;;;;;4983227;28;20093;-80
2023/09/11 02:53:38;;;;;;;24.00;13.85;;;20.00;99.90;;;;;;4989656;28;20042;-80
2023/09/11 02:56:04;;;;;;;22.23;13.63;;;20.00;99.90;;;;;;4982489;28;20081;-81
2023/09/11 02:58:30;;;;;;;28.10;14.02;;;19.90;99.90;;;;;;4989634;28;20034;-80
2023/09/11 03:01:04;;;;;;;27.20;14.52;;;19.90;99.90;;;;;;4989281;28;20110;-81
2023/09/11 03:03:30;;;;;;;21.27;13.93;;;19.90;99.90;;;;;;4990668;28;20117;-80
2023/09/11 03:06:00;;;;;;;25.38;14.05;;;19.90;99.90;;;;;;4972142;28;20034;-81
2023/09/11 03:08:26;;;;;;;20.60;13.38;;;19.90;99.90;;;;;;4987566;28;20047;-80
2023/09/11 03:10:53;;;;;;;25.25;13.95;;;19.80;99.90;;;;;;4990900;28;20045;-80
2023/09/11 03:13:18;;;;;;;27.10;13.70;;;19.80;99.90;;;;;;4990027;28;20046;-81
2023/09/11 03:15:44;;;;;;;18.63;12.73;;;19.80;99.90;;;;;;4974342;28;20031;-80
2023/09/11 03:18:10;;;;;;;21.20;13.98;;;19.70;99.90;;;;;;4988976;28;20129;-80
2023/09/11 03:20:36;;;;;;;26.52;14.50;;;19.90;99.90;;;;;;4990899;28;20387;-80
2023/09/11 03:23:02;;;;;;;20.70;13.48;;;19.70;99.90;;;;;;4990212;28;20046;-80
2023/09/11 03:25:27;;;;;;;26.15;14.10;;;19.70;99.90;;;;;;4990378;28;20038;-80
2023/09/11 03:27:53;;;;;;;20.63;13.75;;;19.70;99.90;;;;;;4990276;28;20377;-80
2023/09/11 03:30:18;;;;;;;26.48;14.85;;;19.70;99.90;;;;;;4990017;28;20045;-80
2023/09/11 03:32:44;;;;;;;22.30;14.10;;;19.70;99.90;;;;;;5000424;28;20039;-80
2023/09/11 03:35:10;;;;;;;20.58;13.45;;;19.60;99.90;;;;;;4989581;28;20034;-80
2023/09/11 03:37:36;;;;;;;18.45;13.13;;;19.70;99.90;;;;;;4973422;28;20038;-80
2023/09/11 03:40:07;;;;;;;21.15;13.40;;;19.70;99.90;;;;;;4974141;28;20091;-80
2023/09/11 03:42:36;;;;;;;36.88;14.68;;;19.60;99.90;;;;;;4990065;28;20509;-80
2023/09/11 03:45:01;;;;;;;23.48;14.25;;;19.70;99.90;;;;;;4989666;28;20039;-80
2023/09/11 03:47:27;;;;;;;20.83;13.73;;;19.60;99.90;;;;;;4992515;28;20030;-80
2023/09/11 03:49:52;;;;;;;22.13;14.00;;;19.60;99.90;;;;;;4987519;28;20069;-80
2023/09/11 03:52:18;;;;;;;27.17;13.43;;;19.60;99.90;;;;;;4988842;28;20121;-79
2023/09/11 03:54:43;;;;;;;23.92;14.02;;;19.60;99.90;;;;;;4988489;28;20042;-81
2023/09/11 03:57:09;;;;;;;21.40;14.27;;;19.60;99.90;;;;;;4989118;28;20100;-79
2023/09/11 03:59:35;;;;;;;23.02;14.05;;;19.60;99.90;;;;;;4986821;28;20042;-80
2023/09/11 04:02:01;;;;;;;24.88;13.88;;;19.60;99.90;;;;;;4985497;28;20049;-79
2023/09/11 04:04:26;;;;;;;26.90;14.25;;;19.50;99.90;;;;;;4988767;28;20038;-79
2023/09/11 04:06:52;;;;;;;24.77;14.23;;;19.50;99.90;;;;;;4987717;28;20387;-80
2023/09/11 04:09:17;;;;;;;24.30;13.95;;;19.50;99.90;;;;;;5008594;28;20532;-79
2023/09/11 04:11:43;;;;;;;20.23;13.65;;;19.50;99.90;;;;;;4990587;28;20049;-80
2023/09/11 04:14:08;;;;;;;22.23;13.93;;;19.50;99.90;;;;;;4992341;28;20042;-80
2023/09/11 04:16:34;;;;;;;20.45;13.20;;;19.40;99.90;;;;;;4992241;28;20038;-79
2023/09/11 04:18:59;;;;;;;20.38;13.32;;;19.40;99.90;;;;;;4991461;28;20128;-79
2023/09/11 04:21:25;;;;;;;25.33;13.95;;;19.40;99.90;;;;;;4996700;28;20041;-80
2023/09/11 04:23:50;;;;;;;21.85;14.52;;;19.40;99.90;;;;;;4991508;28;20464;-79
2023/09/11 04:26:16;;;;;;;18.23;12.77;;;19.40;99.90;;;;;;4992200;28;20042;-80
2023/09/11 04:28:42;;;;;;;26.48;14.10;;;19.30;99.90;;;;;;4992746;28;20406;-80
2023/09/11 04:31:08;;;;;;;24.98;14.23;;;19.30;99.90;;;;;;4992070;28;20034;-80
2023/09/11 04:33:34;;;;;;;20.25;13.27;;;19.30;99.90;;;;;;4993045;28;20041;-79
2023/09/11 04:36:00;;;;;;;23.60;13.63;;;19.30;99.90;;;;;;4989937;28;20046;-80
2023/09/11 04:38:26;;;;;;;27.10;13.63;;;19.30;99.90;;;;;;4991031;28;20398;-80
2023/09/11 04:40:56;;;;;;;22.02;13.60;;;19.20;99.90;;;;;;4989492;28;20049;-80
2023/09/11 04:43:22;;;;;;;27.27;13.88;;;19.20;99.90;;;;;;4991375;28;20048;-79
2023/09/11 04:45:48;;;;;;;21.65;13.15;;;19.10;99.90;;;;;;4990609;28;20050;-79
2023/09/11 04:48:13;;;;;;;26.33;13.45;;;19.20;99.90;;;;;;4991933;28;20034;-79
2023/09/11 04:50:39;;;;;;;23.25;13.13;;;19.10;99.90;;;;;;4998096;28;20030;-80
2023/09/11 04:53:04;;;;;;;20.75;12.88;;;19.10;99.90;;;;;;4992348;28;20042;-80
2023/09/11 04:55:30;;;;;;;23.80;13.60;;;19.10;99.90;;;;;;4989989;28;20038;-80
2023/09/11 04:57:55;;;;;;;25.48;13.65;;;19.10;99.90;;;;;;4989966;28;20053;-80
2023/09/11 05:00:21;;;;;;;23.30;13.27;;;19.10;99.90;;;;;;4994563;28;20035;-80
2023/09/11 05:02:48;;;;;;;22.83;13.30;;;19.10;99.90;;;;;;4992671;28;20038;-80
2023/09/11 05:05:14;;;;;;;21.17;14.38;;;19.10;99.90;;;;;;4991634;28;20529;-80
2023/09/11 05:07:39;;;;;;;22.55;13.07;;;19.10;99.90;;;;;;4981509;28;20094;-80
2023/09/11 05:10:08;;;;;;;26.17;13.50;;;19.10;99.90;;;;;;4990336;28;20034;-79
2023/09/11 05:12:34;;;;;;;27.63;13.88;;;19.10;99.90;;;;;;4993746;28;20553;-80
2023/09/11 05:14:59;;;;;;;25.58;13.98;;;19.10;99.90;;;;;;4976452;28;20108;-80
2023/09/11 05:17:25;;;;;;;22.42;13.77;;;19.20;99.90;;;;;;4977298;28;20149;-80
2023/09/11 05:19:51;;;;;;;24.67;14.43;;;19.20;99.90;;;;;;4993045;28;20050;-81
2023/09/11 05:22:16;;;;;;;32.53;14.43;;;19.20;99.90;;;;;;4992670;28;20035;-80
2023/09/11 05:24:42;;;;;;;27.02;14.25;;;19.30;99.90;;;;;;4996167;28;20034;-79
2023/09/11 05:27:07;;;;;;;28.08;13.75;;;19.30;99.90;;;;;;4990041;28;20062;-80
2023/09/11 05:29:33;;;;;;;22.00;13.45;;;19.40;99.90;;;;;;4989567;28;20034;-80
2023/09/11 05:31:58;;;;;;;21.90;13.75;;;19.50;99.90;;;;;;4992261;28;20498;-80
2023/09/11 05:34:24;;;;;;;24.30;13.38;;;19.50;99.90;;;;;;4967467;28;20034;-79
2023/09/11 05:36:49;;;;;;;23.55;13.55;;;19.50;99.90;;;;;;4990216;28;20035;-80
2023/09/11 05:39:15;;;;;;;26.58;13.77;;;19.50;99.90;;;;;;4986027;28;20470;-82
2023/09/11 05:41:41;;;;;;;24.05;12.80;;;19.50;99.90;;;;;;4987094;28;20066;-80
2023/09/11 05:44:06;;;;;;;26.30;13.93;;;19.60;99.90;;;;;;4986658;28;20038;-80
2023/09/11 05:46:32;;;;;;;23.65;13.55;;;19.60;99.90;;;;;;4993268;28;20117;-80
2023/09/11 05:48:57;;;;;;;21.67;13.25;;;19.70;99.90;;;;;;4975705;28;20080;-81
2023/09/11 05:51:23;;;;;;;23.42;13.23;;;19.70;99.90;;;;;;4988751;28;20042;-80
2023/09/11 05:53:48;;;;;;;23.45;13.05;;;19.80;99.90;;;;;;4990350;28;20584;-80
2023/09/11 05:56:14;;;;;;;26.23;13.63;;;19.80;99.90;;;;;;4990945;28;20608;-80
2023/09/11 05:58:41;;;;;;;24.42;13.50;;;19.90;99.90;;;;;;4988406;28;20054;-80
2023/09/11 06:01:07;;;;;;;28.70;13.82;;;20.00;99.90;;;;;;4989970;28;20042;-80
2023/09/11 06:03:33;;;;;;;26.42;12.32;;;20.10;99.90;;;;;;4991191;28;20053;-79
2023/09/11 06:06:01;;;;;;;23.48;12.52;;;20.10;99.90;;;;;;5001549;28;20046;-80
2023/09/11 06:08:26;;;;;;;27.10;13.55;;;20.20;99.90;;;;;;4993251;28;20054;-78
2023/09/11 06:10:52;;;;;;;24.73;13.60;;;20.30;99.90;;;;;;4991475;28;20088;-75
2023/09/11 06:13:18;;;;;;;24.33;14.27;;;20.30;99.90;;;;;;4989863;28;20042;-75
2023/09/11 06:15:43;;;;;;;25.65;14.13;;;20.40;99.90;;;;;;4990053;28;20065;-75
2023/09/11 06:18:09;;;;;;;27.80;13.65;;;20.50;99.90;;;;;;4988005;28;20048;-77
2023/09/11 06:20:35;;;;;;;24.75;13.38;;;20.60;99.90;;;;;;5000647;28;20138;-72
2023/09/11 06:23:01;;;;;;;24.80;13.25;;;20.60;99.90;;;;;;4987556;28;20093;-72
2023/09/11 06:25:26;;;;;;;25.27;13.25;;;20.70;99.90;;;;;;4988102;28;20046;-72
2023/09/11 06:27:52;;;;;;;24.90;14.23;;;20.80;99.90;;;;;;4990362;28;20442;-72
2023/09/11 06:30:18;;;;;;;45.63;25.98;;;20.70;99.90;;;;;;4990461;28;20213;-71
2023/09/11 06:32:43;;;;;;;29.42;14.18;;;20.80;99.90;;;;;;4987414;28;20461;-72
2023/09/11 06:35:09;;;;;;;23.52;13.82;;;20.80;99.90;;;;;;4989585;28;20076;-72
2023/09/11 06:37:35;;;;;;;24.70;14.18;;;20.90;99.90;;;;;;4988032;28;20048;-72
2023/09/11 06:40:01;;;;;;;24.38;13.02;;;21.00;99.90;;;;;;4987852;28;20517;-71
2023/09/11 06:42:26;;;;;;;26.55;13.27;;;21.10;99.90;;;;;;4991850;28;20505;-72
2023/09/11 06:44:54;;;;;;;37.10;16.50;;;21.10;99.90;;;;;;4988422;28;20038;-73
2023/09/11 06:47:19;;;;;;;24.98;14.00;;;21.20;99.90;;;;;;4989989;28;20038;-73
2023/09/11 06:49:45;;;;;;;21.65;12.90;;;21.30;99.90;;;;;;4985541;28;20030;-73
2023/09/11 06:52:11;;;;;;;23.08;13.63;;;21.40;99.90;;;;;;4990020;28;20034;-72
2023/09/11 06:54:36;;;;;;;23.25;13.75;;;21.40;99.90;;;;;;4990430;28;20169;-75
2023/09/11 06:57:02;;;;;;;30.02;13.68;;;21.50;99.90;;;;;;4983193;28;20048;-75
2023/09/11 06:59:27;;;;;;;24.17;13.65;;;21.50;99.90;;;;;;4985064;28;20038;-74
2023/09/11 07:01:53;;;;;;;23.38;13.32;;;21.60;99.90;;;;;;4980303;28;20047;-75
2023/09/11 07:04:18;;;;;;;26.98;13.85;;;21.70;99.90;;;;;;4989916;28;20046;-75
2023/09/11 07:06:44;;;;;;;34.05;15.60;;;21.90;99.90;;;;;;4989208;28;20099;-73
2023/09/11 07:09:10;;;;;;;35.92;16.65;;;22.00;99.90;;;;;;4991472;28;20818;-72
2023/09/11 07:11:36;;;;;;;25.63;14.40;;;22.20;99.90;;;;;;4986596;28;20040;-73
2023/09/11 07:14:02;;;;;;;22.70;13.50;;;22.30;99.90;;;;;;4986425;28;20045;-73
2023/09/11 07:16:28;;;;;;;24.45;12.75;;;22.60;99.90;;;;;;4988136;28;20053;-73
2023/09/11 07:18:54;;;;;;;28.67;13.27;;;22.70;99.90;;;;;;4984951;28;20042;-74
2023/09/11 07:21:19;;;;;;;25.83;12.40;;;22.90;99.90;;;;;;4988364;28;20050;-74
2023/09/11 07:23:44;;;;;;;22.58;11.88;;;23.00;99.90;;;;;;4989392;28;20049;-75
2023/09/11 07:26:10;;;;;;;25.45;12.73;;;23.30;99.90;;;;;;4985784;28;20193;-74
2023/09/11 07:28:55;;;;;;;24.80;12.90;;;23.40;99.90;;;;;;4991212;28;20512;-74
2023/09/11 07:31:22;;;;;;;21.25;11.93;;;23.50;99.90;;;;;;4987466;28;20034;-75
2023/09/11 07:33:47;;;;;;;28.25;12.50;;;23.50;99.90;;;;;;4989084;28;20073;-75
2023/09/11 07:36:13;;;;;;;20.17;12.13;;;23.70;99.90;;;;;;4983773;28;20065;-75
2023/09/11 07:38:44;;;;;;;18.95;11.30;;;23.80;99.90;;;;;;4984388;28;20046;-74
2023/09/11 07:41:10;;;;;;;21.08;11.35;;;23.90;99.90;;;;;;4986694;28;20690;-74
2023/09/11 07:43:36;;;;;;;20.65;11.35;;;24.10;99.90;;;;;;4992873;28;20555;-74
2023/09/11 07:46:01;;;;;;;20.80;11.40;;;24.20;99.90;;;;;;4992590;28;20074;-74
2023/09/11 07:48:27;;;;;;;20.42;11.07;;;24.30;99.90;;;;;;4990290;28;20081;-74
2023/09/11 07:50:56;;;;;;;20.40;11.52;;;24.40;99.90;;;;;;4977275;28;20129;-74
2023/09/11 07:53:22;;;;;;;18.90;10.82;;;24.50;99.90;;;;;;4991963;28;20034;-74
2023/09/11 07:55:48;;;;;;;19.45;10.98;;;24.60;99.90;;;;;;4981717;28;20061;-74
2023/09/11 07:58:16;;;;;;;17.83;9.75;;;24.70;99.90;;;;;;4990189;28;20049;-74
2023/09/11 08:00:41;;;;;;;15.75;9.82;;;24.80;99.90;;;;;;4992960;28;20050;-74
2023/09/11 08:03:07;;;;;;;19.88;10.65;;;24.80;99.90;;;;;;4990704;28;20053;-74
2023/09/11 08:05:33;;;;;;;15.73;9.95;;;24.90;99.90;;;;;;4988473;28;20030;-74
2023/09/11 08:08:01;;;;;;;18.80;10.48;;;24.80;99.90;;;;;;4991444;28;20049;-74
2023/09/11 08:10:27;;;;;;;23.98;10.65;;;24.80;99.90;;;;;;4982369;28;20047;-74
2023/09/11 08:12:53;;;;;;;19.98;10.98;;;24.90;99.90;;;;;;4999765;28;20054;-74
2023/09/11 08:15:18;;;;;;;16.40;10.07;;;25.00;99.90;;;;;;4995610;28;20030;-74
2023/09/11 08:17:44;;;;;;;20.05;10.02;;;25.10;99.90;;;;;;4996551;28;20108;-75
2023/09/11 08:20:10;;;;;;;22.25;9.93;;;25.20;99.90;;;;;;4993016;28;20089;-74
2023/09/11 08:22:37;;;;;;;16.77;9.98;;;25.30;99.90;;;;;;4990362;28;20038;-75
2023/09/11 08:25:02;;;;;;;17.08;9.13;;;25.40;99.90;;;;;;4989517;28;20049;-75
2023/09/11 08:27:28;;;;;;;17.85;9.95;;;25.50;99.90;;;;;;4991100;28;20046;-74
2023/09/11 08:29:55;;;;;;;16.77;8.95;;;25.50;99.90;;;;;;4988477;28;20049;-75
2023/09/11 08:32:21;;;;;;;19.52;8.52;;;25.60;99.90;;;;;;4993857;28;20052;-75
2023/09/11 08:34:47;;;;;;;17.95;9.27;;;25.60;99.90;;;;;;4989345;28;20042;-75
2023/09/11 08:37:12;;;;;;;16.13;9.25;;;25.70;99.90;;;;;;4984149;28;20038;-75
2023/09/11 08:39:38;;;;;;;18.48;9.35;;;25.70;99.90;;;;;;4990104;28;20453;-75
2023/09/11 08:42:04;;;;;;;19.88;9.07;;;25.60;99.90;;;;;;4988651;28;20069;-78
2023/09/11 08:44:29;;;;;;;24.83;9.00;;;25.80;99.90;;;;;;4987215;28;22039;-77
2023/09/11 08:46:58;;;;;;;14.10;8.70;;;25.90;99.90;;;;;;4985365;28;20034;-77
2023/09/11 08:49:30;;;;;;;15.73;8.35;;;25.90;99.90;;;;;;4981308;28;20049;-77
2023/09/11 08:51:59;;;;;;;13.02;8.63;;;26.00;99.90;;;;;;5000241;28;20494;-77
2023/09/11 08:54:32;;;;;;;20.40;8.20;;;26.10;99.90;;;;;;4986972;28;20046;-77
2023/09/11 08:56:58;;;;;;;18.08;7.85;;;26.20;99.90;;;;;;5005557;28;20050;-77
2023/09/11 08:59:26;;;;;;;17.90;7.90;;;26.20;99.90;;;;;;4967209;28;20062;-77
2023/09/11 09:01:52;;;;;;;16.48;8.68;;;26.20;99.90;;;;;;5003583;28;20038;-78
2023/09/11 09:04:19;;;;;;;15.45;8.02;;;26.20;99.90;;;;;;4989388;28;20498;-78
2023/09/11 09:06:46;;;;;;;13.85;7.47;;;26.20;99.90;;;;;;4986271;28;20038;-78
2023/09/11 09:09:11;;;;;;;18.02;7.70;;;26.30;99.90;;;;;;4987044;28;20081;-77
2023/09/11 09:11:38;;;;;;;13.98;7.80;;;26.40;99.90;;;;;;4976978;28;20038;-77
2023/09/11 09:14:06;;;;;;;13.93;7.88;;;26.40;99.90;;;;;;4996907;28;20058;-78
2023/09/11 09:16:32;;;;;;;19.85;8.60;;;26.50;99.90;;;;;;4978435;28;20403;-78
2023/09/11 09:18:57;;;;;;;12.93;8.13;;;26.40;99.90;;;;;;4988968;28;20046;-76
2023/09/11 09:21:27;;;;;;;16.80;8.50;;;26.50;99.90;;;;;;4984833;28;20141;-77
2023/09/11 09:23:53;;;;;;;15.68;8.02;;;26.50;99.90;;;;;;4993896;28;20541;-78
2023/09/11 09:26:19;;;;;;;12.88;8.40;;;26.50;99.90;;;;;;4988481;28;20034;-77
2023/09/11 09:28:47;;;;;;;16.67;8.52;;;26.50;99.90;;;;;;4991571;28;20038;-77
2023/09/11 09:31:23;;;;;;;12.75;8.30;;;26.50;99.90;;;;;;4988811;28;20054;-77
2023/09/11 09:33:52;;;;;;;22.20;8.88;;;26.50;99.90;;;;;;4985318;28;20129;-76
2023/09/11 09:36:17;;;;;;;21.25;8.98;;;26.50;99.90;;;;;;4985204;28;20439;-76
2023/09/11 09:38:43;;;;;;;16.60;8.48;;;26.50;99.90;;;;;;4990954;28;20058;-77
2023/09/11 09:41:10;;;;;;;17.23;9.10;;;26.60;99.90;;;;;;4989696;28;20053;-77
2023/09/11 09:43:36;;;;;;;15.20;7.97;;;26.70;99.90;;;;;;4989312;28;20070;-77
2023/09/11 09:46:20;;;;;;;16.55;8.15;;;26.70;99.90;;;;;;4990028;28;20089;-77
2023/09/11 09:48:45;;;;;;;17.67;8.73;;;26.70;99.90;;;;;;4988376;28;20483;-77
2023/09/11 09:51:11;;;;;;;16.33;8.70;;;26.70;99.90;;;;;;4992966;28;20042;-77
2023/09/11 09:53:42;;;;;;;17.42;8.68;;;26.70;99.90;;;;;;4990375;28;20038;-77
2023/09/11 09:56:10;;;;;;;21.45;8.73;;;26.80;99.90;;;;;;4988836;28;20513;-76
2023/09/11 09:58:37;;;;;;;13.77;8.20;;;26.80;99.90;;;;;;4991235;28;20576;-77
2023/09/11 10:01:08;;;;;;;18.50;8.38;;;26.90;99.90;;;;;;4973298;28;20169;-77
2023/09/11 10:03:45;;;;;;;14.25;8.65;;;26.90;99.90;;;;;;4986845;28;20039;-77
2023/09/11 10:06:26;;;;;;;20.38;9.45;;;27.00;99.90;;;;;;4984957;28;20046;-76
2023/09/11 10:09:12;;;;;;;16.52;9.68;;;27.10;99.90;;;;;;4985753;28;20046;-77
2023/09/11 10:11:40;;;;;;;20.70;9.40;;;27.10;99.90;;;;;;4988485;28;20129;-77
2023/09/11 10:14:08;;;;;;;18.85;8.90;;;27.20;99.90;;;;;;5005730;28;20114;-77
2023/09/11 10:16:34;;;;;;;15.48;8.77;;;27.20;99.90;;;;;;4986180;28;20053;-77
2023/09/11 10:19:00;;;;;;;12.18;8.75;;;27.30;99.90;;;;;;4990806;28;20405;-77
2023/09/11 10:21:27;;;;;;;14.60;8.80;;;27.30;99.90;;;;;;4988690;28;20038;-78
2023/09/11 10:23:53;;;;;;;15.30;9.43;;;27.40;99.90;;;;;;4976937;28;20093;-77
2023/09/11 10:26:31;;;;;;;14.05;9.23;;;27.40;99.90;;;;;;4985787;28;20038;-77
2023/09/11 10:29:06;;;;;;;13.18;9.80;;;27.40;99.90;;;;;;4982727;28;20110;-77
2023/09/11 10:31:35;;;;;;;18.63;10.40;;;27.40;99.90;;;;;;4986603;28;20121;-78
2023/09/11 10:34:02;;;;;;;16.23;10.70;;;27.40;99.90;;;;;;4983344;28;20045;-77
2023/09/11 10:36:40;;;;;;;16.17;11.38;;;27.50;99.90;;;;;;4988590;28;20125;-77
2023/09/11 10:39:09;;;;;;;15.82;11.02;;;27.60;99.90;;;;;;4988576;28;20065;-77
2023/09/11 10:41:36;;;;;;;16.58;10.43;;;27.60;99.90;;;;;;4985565;28;20406;-77
2023/09/11 10:44:02;;;;;;;15.23;11.60;;;27.70;99.90;;;;;;4989824;28;20047;-76
2023/09/11 10:46:32;;;;;;;18.52;11.05;;;27.80;99.90;;;;;;4989053;28;20409;-77
2023/09/11 10:48:59;;;;;;;16.45;11.02;;;27.80;99.90;;;;;;4989785;28;20656;-77
2023/09/11 10:51:27;;;;;;;13.75;9.85;;;27.80;99.90;;;;;;4988675;28;20040;-77
2023/09/11 10:53:53;;;;;;;19.50;11.05;;;28.00;99.90;;;;;;4989680;28;20391;-78
2023/09/11 10:56:18;;;;;;;17.27;10.30;;;28.00;99.90;;;;;;4980783;28;20053;-77
2023/09/11 10:58:44;;;;;;;17.63;11.65;;;28.10;99.90;;;;;;4987173;28;20034;-76
2023/09/11 11:01:13;;;;;;;15.82;11.07;;;28.10;99.90;;;;;;4987497;28;20073;-77
2023/09/11 11:03:40;;;;;;;13.45;10.20;;;28.20;99.90;;;;;;4988048;28;20035;-78
2023/09/11 11:06:12;;;;;;;16.00;10.98;;;28.20;99.90;;;;;;4986931;28;20045;-77
2023/09/11 11:08:39;;;;;;;15.00;10.40;;;28.30;99.90;;;;;;4983420;28;20140;-77
2023/09/11 11:11:16;;;;;;;17.42;10.77;;;28.40;99.90;;;;;;4986778;28;20536;-77
2023/09/11 11:14:23;;;;;;;15.52;11.32;;;28.50;99.90;;;;;;4979184;28;20039;-77
2023/09/11 11:17:04;;;;;;;14.63;9.70;;;28.50;99.90;;;;;;4980092;28;20505;-78
2023/09/11 11:19:31;;;;;;;22.55;9.90;;;28.50;99.90;;;;;;4988595;28;20091;-76
2023/09/11 11:21:59;;;;;;;17.40;9.25;;;28.60;99.90;;;;;;4992488;28;20099;-78
2023/09/11 11:24:25;;;;;;;11.73;8.48;;;28.60;99.90;;;;;;4991697;28;20050;-78
2023/09/11 11:26:55;;;;;;;12.68;8.00;;;28.70;99.90;;;;;;4991168;28;20035;-78
2023/09/11 11:29:22;;;;;;;12.25;8.50;;;28.80;99.90;;;;;;4998861;28;20046;-77
2023/09/11 11:31:53;;;;;;;14.38;9.25;;;28.90;99.90;;;;;;4975195;28;20069;-77
2023/09/11 11:34:22;;;;;;;13.95;8.77;;;29.00;99.90;;;;;;4989458;28;20553;-77
2023/09/11 11:36:50;;;;;;;13.68;9.88;;;29.10;99.90;;;;;;4985924;28;20514;-77
2023/09/11 11:39:16;;;;;;;11.98;7.90;;;29.20;99.90;;;;;;4989716;28;20043;-78
2023/09/11 11:41:43;;;;;;;11.57;6.95;;;29.40;99.90;;;;;;4993222;28;20041;-75
2023/09/11 11:44:08;;;;;;;9.65;6.82;;;29.50;99.90;;;;;;4993462;28;20081;-78
2023/09/11 11:46:35;;;;;;;12.63;6.80;;;29.50;99.90;;;;;;4992482;28;20042;-79
2023/09/11 11:49:00;;;;;;;10.52;6.75;;;29.70;99.90;;;;;;4990205;28;20041;-79
2023/09/11 11:51:30;;;;;;;12.80;7.82;;;29.70;99.90;;;;;;4986546;28;20039;-78
2023/09/11 11:53:56;;;;;;;12.35;7.60;;;29.80;99.90;;;;;;4993527;28;20050;-78
2023/09/11 11:56:21;;;;;;;13.98;8.45;;;29.60;99.90;;;;;;4990136;28;20038;-79
2023/09/11 11:58:47;;;;;;;11.15;6.80;;;29.60;99.90;;;;;;4988568;28;20562;-77
2023/09/11 12:01:12;;;;;;;10.65;6.80;;;29.80;99.90;;;;;;4990471;28;20042;-78
2023/09/11 12:03:46;;;;;;;9.10;6.65;;;30.00;99.90;;;;;;4991227;28;20189;-78
2023/09/11 12:06:12;;;;;;;8.85;6.57;;;30.20;99.90;;;;;;4986366;28;20038;-78
2023/09/11 12:08:38;;;;;;;14.77;7.82;;;30.30;99.90;;;;;;4987153;28;20042;-79
2023/09/11 12:11:07;;;;;;;10.15;7.20;;;30.40;99.90;;;;;;4988061;28;20042;-78
2023/09/11 12:13:32;;;;;;;11.23;6.60;;;30.50;99.90;;;;;;4989272;28;20034;-78
2023/09/11 12:15:59;;;;;;;9.30;5.70;;;30.60;99.90;;;;;;4976194;28;20108;-79
2023/09/11 12:18:27;;;;;;;7.80;5.72;;;30.60;99.90;;;;;;4987068;28;20404;-78
2023/09/11 12:20:57;;;;;;;11.82;6.28;;;30.60;99.90;;;;;;4989625;28;20461;-76
2023/09/11 12:23:23;;;;;;;10.52;6.68;;;30.70;99.90;;;;;;4988359;28;20038;-77
2023/09/11 12:25:48;;;;;;;16.35;6.35;;;30.60;99.90;;;;;;4990316;28;20057;-78
2023/09/11 12:28:14;;;;;;;10.07;6.32;;;30.70;99.90;;;;;;4989463;28;20079;-78
2023/09/11 12:30:44;;;;;;;13.90;5.80;;;30.60;99.90;;;;;;4993119;28;20034;-78